Time;durP1;ratioP1;P1;durP2;ratioP2;P2;SDS_P1;SDS_P2;PMS_P1;PMS_P2;Temp;Humidity;BMP_temperature;BMP_pressure;BME280_temperature;BME280_humidity;BME280_pressure;Samples;Min_cycle;Max_cycle;Signal;HPM_P1;HPM_P2
2023/06/18 00:01:58;;;;;;;21.38;17.42;;;15.10;99.90;;;;;;5026152;28;20489;-91
2023/06/18 00:04:25;;;;;;;28.17;18.85;;;15.10;99.90;;;;;;5029929;28;20048;-91
2023/06/18 00:06:51;;;;;;;23.08;15.93;;;15.10;99.90;;;;;;5035885;28;20077;-90
2023/06/18 00:09:17;;;;;;;26.52;18.48;;;15.00;99.90;;;;;;5022267;28;20055;-92
2023/06/18 00:11:43;;;;;;;24.42;17.88;;;15.00;99.90;;;;;;5012307;28;20045;-92
2023/06/18 00:14:08;;;;;;;24.70;17.88;;;15.00;99.90;;;;;;5011902;28;20049;-91
2023/06/18 00:16:34;;;;;;;26.30;18.38;;;15.00;99.90;;;;;;5010002;28;20039;-92
2023/06/18 00:19:00;;;;;;;28.65;19.58;;;15.00;99.90;;;;;;5029708;28;20403;-90
2023/06/18 00:21:26;;;;;;;25.90;18.02;;;17.00;99.90;;;;;;4994502;28;20509;-91
2023/06/18 00:23:52;;;;;;;24.17;17.23;;;14.90;99.90;;;;;;4995837;28;20513;-92
2023/06/18 00:26:18;;;;;;;27.90;18.88;;;14.90;99.90;;;;;;5011137;28;20053;-94
2023/06/18 00:28:44;;;;;;;24.85;18.50;;;14.90;99.90;;;;;;5012227;28;20045;-92
2023/06/18 00:31:11;;;;;;;24.15;18.25;;;14.90;99.90;;;;;;5011306;28;20045;-92
2023/06/18 00:33:40;;;;;;;26.17;16.98;;;14.90;99.90;;;;;;5010937;28;20572;-92
2023/06/18 00:36:07;;;;;;;25.75;17.73;;;14.90;99.90;;;;;;4998788;28;20041;-92
2023/06/18 00:38:35;;;;;;;26.60;18.20;;;14.90;99.90;;;;;;5031568;28;20041;-92
2023/06/18 00:41:00;;;;;;;25.40;18.52;;;14.90;99.90;;;;;;5005370;28;20426;-93
2023/06/18 00:43:29;;;;;;;25.33;16.85;;;14.80;99.90;;;;;;5016236;28;20037;-92
2023/06/18 00:45:59;;;;;;;26.35;18.70;;;14.80;99.90;;;;;;5014904;28;20057;-91
2023/06/18 00:48:25;;;;;;;27.77;18.27;;;14.80;99.90;;;;;;5015103;28;20148;-92
2023/06/18 00:50:55;;;;;;;28.70;19.10;;;16.10;99.90;;;;;;4997305;28;20041;-92
2023/06/18 00:53:21;;;;;;;24.92;18.05;;;14.80;99.90;;;;;;4999802;28;20041;-92
2023/06/18 00:55:48;;;;;;;24.80;17.75;;;14.80;99.90;;;;;;5014909;28;20040;-92
2023/06/18 00:58:15;;;;;;;25.95;17.63;;;14.80;99.90;;;;;;5032400;28;20049;-91
2023/06/18 01:00:41;;;;;;;24.90;17.88;;;14.80;99.90;;;;;;5031067;28;20055;-93
2023/06/18 01:03:19;;;;;;;27.40;18.50;;;14.80;99.90;;;;;;5031148;28;20045;-92
2023/06/18 01:05:51;;;;;;;31.42;20.75;;;14.80;99.90;;;;;;5032166;28;20460;-93
2023/06/18 01:08:22;;;;;;;27.23;17.42;;;14.80;99.90;;;;;;4997751;28;20048;-91
2023/06/18 01:11:00;;;;;;;24.60;18.50;;;14.80;99.90;;;;;;5032369;28;20053;-92
2023/06/18 01:13:30;;;;;;;24.83;16.25;;;14.70;99.90;;;;;;4999631;28;20501;-92
2023/06/18 01:15:58;;;;;;;26.17;17.52;;;14.70;99.90;;;;;;4998772;28;20068;-93
2023/06/18 01:18:24;;;;;;;24.95;17.65;;;14.70;99.90;;;;;;5031278;28;20060;-91
2023/06/18 01:20:51;;;;;;;25.40;16.90;;;14.70;99.90;;;;;;5014212;28;20527;-92
2023/06/18 01:23:52;;;;;;;28.17;17.50;;;14.70;99.90;;;;;;4998781;28;20470;-92
2023/06/18 01:26:20;;;;;;;25.45;17.85;;;14.70;99.90;;;;;;5030838;28;20053;-92
2023/06/18 01:28:51;;;;;;;25.58;17.42;;;14.70;99.90;;;;;;5017036;28;20048;-91
2023/06/18 01:31:23;;;;;;;24.02;16.73;;;14.70;99.90;;;;;;5016664;28;20048;-91
2023/06/18 01:33:53;;;;;;;24.38;17.33;;;14.70;99.90;;;;;;5037838;28;20057;-92
2023/06/18 01:36:47;;;;;;;27.48;17.83;;;14.70;99.90;;;;;;5047543;28;20075;-91
2023/06/18 01:39:45;;;;;;;22.67;16.40;;;14.70;99.90;;;;;;5036675;28;20041;-93
2023/06/18 01:42:17;;;;;;;24.58;15.95;;;14.70;99.90;;;;;;5032013;28;20052;-92
2023/06/18 01:44:57;;;;;;;30.15;17.05;;;14.60;99.90;;;;;;5019369;28;20068;-91
2023/06/18 01:47:26;;;;;;;23.08;17.55;;;14.60;99.90;;;;;;5034138;28;20097;-90
2023/06/18 01:49:55;;;;;;;23.60;16.70;;;14.60;99.90;;;;;;5034014;28;20131;-91
2023/06/18 01:52:23;;;;;;;24.38;15.98;;;14.60;99.90;;;;;;5015786;28;20041;-92
2023/06/18 01:54:51;;;;;;;22.48;16.35;;;14.60;99.90;;;;;;5014037;28;20048;-93
2023/06/18 01:57:17;;;;;;;26.48;17.17;;;14.60;99.90;;;;;;5014806;28;20049;-91
2023/06/18 01:59:43;;;;;;;24.15;17.40;;;14.50;99.90;;;;;;5012517;28;20051;-91
2023/06/18 02:02:10;;;;;;;23.50;17.92;;;14.50;99.90;;;;;;4998490;28;20482;-91
2023/06/18 02:04:36;;;;;;;24.30;17.27;;;14.50;99.90;;;;;;5012675;28;20048;-92
2023/06/18 02:07:02;;;;;;;25.95;18.13;;;14.50;99.90;;;;;;4997330;28;20041;-91
2023/06/18 02:09:28;;;;;;;27.38;17.63;;;14.50;99.90;;;;;;5029680;28;20191;-92
2023/06/18 02:11:54;;;;;;;26.33;17.65;;;14.50;99.90;;;;;;5012788;28;20525;-92
2023/06/18 02:14:19;;;;;;;25.58;17.55;;;14.40;99.90;;;;;;4981371;28;20116;-92
2023/06/18 02:16:48;;;;;;;24.20;16.98;;;14.40;99.90;;;;;;5012211;28;20126;-90
2023/06/18 02:19:14;;;;;;;22.65;16.48;;;14.30;99.90;;;;;;5015321;28;20234;-92
2023/06/18 02:21:40;;;;;;;28.27;15.18;;;14.30;99.90;;;;;;5012777;28;20080;-93
2023/06/18 02:24:06;;;;;;;26.80;14.95;;;14.30;99.90;;;;;;5014287;28;20036;-91
2023/06/18 02:26:32;;;;;;;25.20;15.57;;;14.20;99.90;;;;;;5012613;28;20056;-92
2023/06/18 02:28:58;;;;;;;30.83;14.73;;;12.30;99.90;;;;;;5029435;28;20044;-92
2023/06/18 02:31:24;;;;;;;30.08;14.30;;;14.20;99.90;;;;;;4981726;28;20049;-91
2023/06/18 02:33:49;;;;;;;41.70;15.35;;;14.20;99.90;;;;;;4995893;28;20095;-93
2023/06/18 02:36:17;;;;;;;45.85;15.63;;;14.20;99.90;;;;;;4997679;28;20122;-92
2023/06/18 02:38:43;;;;;;;62.75;15.65;;;14.20;99.90;;;;;;5028200;28;20084;-93
2023/06/18 02:41:08;;;;;;;32.50;16.55;;;14.20;99.90;;;;;;4997241;28;20107;-91
2023/06/18 02:43:36;;;;;;;30.55;15.68;;;14.20;99.90;;;;;;5012181;28;20043;-93
2023/06/18 02:46:02;;;;;;;50.45;14.82;;;14.20;99.90;;;;;;4980779;28;20060;-92
2023/06/18 02:48:27;;;;;;;45.97;14.85;;;14.20;99.90;;;;;;4996055;28;20480;-93
2023/06/18 02:50:53;;;;;;;34.78;16.10;;;14.10;99.90;;;;;;5011860;28;20068;-93
2023/06/18 02:53:19;;;;;;;62.83;15.80;;;14.20;99.90;;;;;;5030573;28;20056;-94
2023/06/18 02:55:45;;;;;;;29.92;16.30;;;14.10;99.90;;;;;;4997837;28;20052;-93
2023/06/18 02:58:29;;;;;;;39.30;16.23;;;14.10;99.90;;;;;;5002111;28;20044;-93
2023/06/18 03:00:56;;;;;;;29.67;16.85;;;14.10;99.90;;;;;;5030649;28;20054;-92
2023/06/18 03:03:23;;;;;;;36.22;17.13;;;14.10;99.90;;;;;;5028745;28;20276;-93
2023/06/18 03:05:49;;;;;;;27.65;17.40;;;14.10;99.90;;;;;;5035451;28;20808;-92
2023/06/18 03:08:15;;;;;;;51.22;18.50;;;14.20;99.90;;;;;;5006767;28;20088;-92
2023/06/18 03:10:44;;;;;;;28.00;17.98;;;14.20;99.90;;;;;;5012346;28;20045;-92
2023/06/18 03:13:10;;;;;;;31.67;18.48;;;14.20;99.90;;;;;;5030602;28;20108;-92
2023/06/18 03:15:35;;;;;;;27.88;18.30;;;14.20;99.90;;;;;;5032462;28;20045;-94
2023/06/18 03:18:01;;;;;;;35.20;17.60;;;14.20;99.90;;;;;;5041339;28;20143;-94
2023/06/18 03:20:28;;;;;;;35.15;18.60;;;14.20;99.90;;;;;;5022124;28;20045;-93
2023/06/18 03:22:55;;;;;;;36.67;18.00;;;14.30;99.90;;;;;;5001237;28;20129;-93
2023/06/18 03:25:20;;;;;;;23.90;17.20;;;14.30;99.90;;;;;;5013827;28;20041;-93
2023/06/18 03:27:47;;;;;;;22.27;16.25;;;14.30;99.90;;;;;;5013914;28;20068;-92
2023/06/18 03:30:13;;;;;;;30.38;17.73;;;14.30;99.90;;;;;;5029125;28;20405;-92
2023/06/18 03:32:40;;;;;;;30.65;17.58;;;14.30;99.90;;;;;;5013026;28;20084;-93
2023/06/18 03:35:06;;;;;;;23.63;17.10;;;14.40;99.90;;;;;;4995944;28;20045;-93
2023/06/18 03:37:32;;;;;;;24.58;17.58;;;14.40;99.90;;;;;;5012218;28;20041;-93
2023/06/18 03:39:58;;;;;;;37.88;17.77;;;14.40;99.90;;;;;;5012611;28;20033;-92
2023/06/18 03:42:24;;;;;;;28.33;17.05;;;14.40;99.90;;;;;;5027678;28;20051;-92
2023/06/18 03:44:50;;;;;;;39.10;17.08;;;14.50;99.90;;;;;;5013192;28;20048;-93
2023/06/18 03:47:17;;;;;;;45.47;17.23;;;14.50;99.90;;;;;;5010596;28;20128;-93
2023/06/18 03:49:43;;;;;;;37.28;17.30;;;14.50;99.90;;;;;;4980343;28;20083;-92
2023/06/18 03:52:08;;;;;;;26.90;16.17;;;14.50;99.90;;;;;;4976022;28;20053;-93
2023/06/18 03:54:35;;;;;;;28.85;16.42;;;14.50;99.90;;;;;;4991848;28;20048;-94
2023/06/18 03:57:01;;;;;;;37.92;16.70;;;14.60;99.90;;;;;;4995112;28;20051;-91
2023/06/18 03:59:27;;;;;;;47.40;18.52;;;14.60;99.90;;;;;;5027021;28;20076;-93
2023/06/18 04:01:53;;;;;;;31.13;17.30;;;14.60;99.90;;;;;;4980435;28;20103;-93
2023/06/18 04:04:19;;;;;;;34.03;17.08;;;14.70;99.90;;;;;;4998610;28;20041;-91
2023/06/18 04:06:44;;;;;;;29.45;17.83;;;14.80;99.90;;;;;;5014753;28;20049;-94
2023/06/18 04:09:10;;;;;;;41.35;17.83;;;14.80;99.90;;;;;;5012436;28;20041;-92
2023/06/18 04:11:40;;;;;;;32.78;17.60;;;14.80;99.90;;;;;;5011225;28;20334;-93
2023/06/18 04:14:08;;;;;;;36.63;17.60;;;14.90;99.90;;;;;;5012335;28;20049;-92
2023/06/18 04:16:37;;;;;;;32.13;18.73;;;14.90;99.90;;;;;;5026905;28;20406;-92
2023/06/18 04:19:03;;;;;;;39.10;17.52;;;15.00;99.90;;;;;;5028801;28;20045;-92
2023/06/18 04:21:28;;;;;;;42.33;18.48;;;15.00;99.90;;;;;;4977416;28;20325;-93
2023/06/18 04:23:54;;;;;;;30.80;17.95;;;15.00;99.90;;;;;;5012923;28;20088;-93
2023/06/18 04:26:21;;;;;;;26.38;16.95;;;15.10;99.90;;;;;;5011761;28;20158;-93
2023/06/18 04:28:47;;;;;;;31.05;17.95;;;15.10;99.90;;;;;;4978933;28;20045;-94
2023/06/18 04:31:14;;;;;;;38.65;18.33;;;15.20;99.90;;;;;;5012212;28;20048;-93
2023/06/18 04:33:39;;;;;;;32.55;18.45;;;15.20;99.90;;;;;;5011355;28;20064;-92
2023/06/18 04:36:05;;;;;;;31.95;18.85;;;15.20;99.90;;;;;;5041575;28;20037;-93
2023/06/18 04:38:31;;;;;;;40.65;17.95;;;15.40;99.90;;;;;;5028714;28;20129;-93
2023/06/18 04:40:56;;;;;;;28.40;17.77;;;15.50;99.90;;;;;;5018350;28;20044;-93
2023/06/18 04:43:22;;;;;;;33.42;18.38;;;15.50;99.90;;;;;;5051041;28;20053;-92
2023/06/18 04:45:48;;;;;;;35.15;18.40;;;15.50;99.90;;;;;;4990111;28;20077;-94
2023/06/18 04:48:14;;;;;;;28.52;18.10;;;15.60;99.90;;;;;;5029679;28;20059;-93
2023/06/18 04:50:41;;;;;;;25.10;16.17;;;15.60;99.90;;;;;;5011185;28;20084;-93
2023/06/18 04:53:06;;;;;;;24.50;15.82;;;15.70;99.90;;;;;;5032140;28;20041;-93
2023/06/18 04:55:32;;;;;;;23.63;16.35;;;15.80;99.90;;;;;;5001246;28;20082;-92
2023/06/18 04:57:58;;;;;;;24.83;16.30;;;15.80;99.90;;;;;;4987927;28;20167;-94
2023/06/18 05:00:24;;;;;;;22.45;15.82;;;15.80;99.90;;;;;;5030052;28;20076;-93
2023/06/18 05:02:49;;;;;;;19.92;14.75;;;15.80;99.90;;;;;;5012410;28;20047;-93
2023/06/18 05:05:15;;;;;;;22.48;14.68;;;15.90;99.90;;;;;;4995935;28;20041;-93
2023/06/18 05:07:42;;;;;;;21.42;14.68;;;15.90;99.90;;;;;;5027706;28;20601;-91
2023/06/18 05:10:08;;;;;;;22.33;15.32;;;16.00;99.90;;;;;;5029852;28;20140;-93
2023/06/18 05:12:35;;;;;;;22.27;15.15;;;16.00;99.90;;;;;;5020106;28;20194;-92
2023/06/18 05:15:01;;;;;;;20.75;14.65;;;16.10;99.90;;;;;;5032848;28;20045;-93
2023/06/18 05:17:26;;;;;;;21.05;14.18;;;16.10;99.90;;;;;;5028485;28;20040;-94
2023/06/18 05:19:52;;;;;;;26.85;16.02;;;16.10;99.90;;;;;;4997507;28;20540;-93
2023/06/18 05:22:18;;;;;;;21.58;15.30;;;16.20;99.90;;;;;;5012753;28;20109;-91
2023/06/18 05:24:43;;;;;;;20.83;14.40;;;16.30;99.90;;;;;;5014581;28;20048;-94
2023/06/18 05:27:10;;;;;;;20.92;14.48;;;16.30;99.90;;;;;;5017740;28;20044;-94
2023/06/18 05:29:36;;;;;;;19.65;14.75;;;16.50;99.90;;;;;;4998177;28;20051;-94
2023/06/18 05:32:02;;;;;;;17.55;13.57;;;16.50;99.90;;;;;;5016312;28;20136;-94
2023/06/18 05:34:28;;;;;;;18.70;13.18;;;16.50;99.90;;;;;;5014327;28;20423;-94
2023/06/18 05:36:53;;;;;;;20.65;13.85;;;16.60;99.90;;;;;;5014683;28;20095;-94
2023/06/18 05:39:19;;;;;;;16.98;14.02;;;16.60;99.90;;;;;;4982020;28;20037;-93
2023/06/18 05:41:45;;;;;;;18.30;12.57;;;16.70;99.90;;;;;;5013441;28;20052;-91
2023/06/18 05:44:10;;;;;;;17.38;13.63;;;16.70;99.90;;;;;;4998613;28;20128;-92
2023/06/18 05:46:36;;;;;;;14.25;12.25;;;16.80;99.90;;;;;;5012182;28;20486;-91
2023/06/18 05:49:02;;;;;;;16.00;12.10;;;16.90;99.90;;;;;;5031068;28;20056;-91
2023/06/18 05:51:27;;;;;;;14.80;11.98;;;17.00;99.90;;;;;;5028975;28;20041;-92
2023/06/18 05:53:53;;;;;;;14.43;11.27;;;17.00;99.90;;;;;;4998695;28;20099;-91
2023/06/18 05:56:18;;;;;;;14.43;10.95;;;17.10;99.90;;;;;;5013225;28;20056;-91
2023/06/18 05:58:45;;;;;;;14.75;11.00;;;17.20;99.90;;;;;;4996282;28;20051;-92
2023/06/18 06:01:10;;;;;;;12.07;9.95;;;17.30;99.90;;;;;;4996571;28;20044;-89
2023/06/18 06:03:36;;;;;;;12.35;10.52;;;17.30;99.90;;;;;;5013462;28;20477;-90
2023/06/18 06:06:02;;;;;;;14.88;11.00;;;17.40;99.90;;;;;;5040095;28;20133;-89
2023/06/18 06:08:28;;;;;;;14.95;12.32;;;17.50;99.90;;;;;;5027700;28;20033;-90
2023/06/18 06:10:54;;;;;;;14.50;11.27;;;17.60;99.90;;;;;;5036961;28;20087;-91
2023/06/18 06:13:20;;;;;;;15.02;12.05;;;17.70;99.90;;;;;;5036912;28;20045;-92
2023/06/18 06:15:45;;;;;;;13.88;11.60;;;17.70;99.90;;;;;;4997449;28;20044;-91
2023/06/18 06:18:11;;;;;;;13.73;11.27;;;18.00;99.90;;;;;;4997306;28;20494;-91
2023/06/18 06:20:37;;;;;;;12.68;11.38;;;18.10;99.90;;;;;;5011664;28;20139;-91
2023/06/18 06:23:02;;;;;;;15.82;12.32;;;18.20;99.90;;;;;;4998048;28;20774;-90
2023/06/18 06:25:28;;;;;;;13.75;11.02;;;18.30;99.90;;;;;;5012482;28;20091;-91
2023/06/18 06:27:54;;;;;;;14.38;11.32;;;18.40;99.90;;;;;;5013984;28;20376;-91
2023/06/18 06:30:20;;;;;;;14.75;11.07;;;18.40;99.90;;;;;;4995537;28;20099;-91
2023/06/18 06:32:46;;;;;;;23.65;15.90;;;18.50;99.90;;;;;;4995516;28;20049;-90
2023/06/18 06:35:11;;;;;;;17.95;10.20;;;18.60;99.90;;;;;;4997004;28;20040;-91
2023/06/18 06:37:37;;;;;;;12.88;10.70;;;18.70;99.90;;;;;;5013103;28;20052;-91
2023/06/18 06:40:06;;;;;;;27.48;19.73;;;18.80;99.90;;;;;;5001814;28;20143;-91
2023/06/18 06:42:32;;;;;;;24.17;15.95;;;18.90;99.90;;;;;;5002313;28;20110;-92
2023/06/18 06:44:57;;;;;;;13.05;10.93;;;19.00;99.90;;;;;;5033173;28;20044;-92
2023/06/18 06:47:23;;;;;;;12.27;9.98;;;19.10;99.90;;;;;;5029164;28;20064;-93
2023/06/18 06:49:49;;;;;;;12.93;9.98;;;20.30;99.90;;;;;;4999255;28;20091;-93
2023/06/18 06:52:14;;;;;;;14.65;9.48;;;19.30;99.90;;;;;;5013465;28;20045;-95
2023/06/18 06:54:40;;;;;;;12.07;9.35;;;19.40;99.90;;;;;;4998149;28;20045;-94
2023/06/18 06:57:06;;;;;;;9.95;8.90;;;19.50;99.90;;;;;;4999616;28;20052;-93
2023/06/18 06:59:31;;;;;;;10.15;8.50;;;19.60;99.90;;;;;;5029234;28;20490;-93
2023/06/18 07:01:57;;;;;;;9.30;8.32;;;19.60;99.90;;;;;;5015133;28;20478;-93
2023/06/18 07:04:23;;;;;;;11.77;8.63;;;19.80;99.90;;;;;;4995681;28;20052;-91
2023/06/18 07:06:49;;;;;;;11.80;9.15;;;19.80;99.90;;;;;;5012755;28;20049;-91
2023/06/18 07:09:15;;;;;;;12.35;8.73;;;19.90;99.90;;;;;;5013305;28;20397;-93
2023/06/18 07:11:41;;;;;;;9.93;8.63;;;20.00;99.90;;;;;;5013252;28;20051;-92
2023/06/18 07:14:07;;;;;;;11.25;8.30;;;20.10;99.90;;;;;;5012945;28;20037;-90
2023/06/18 07:16:35;;;;;;;11.25;8.65;;;20.10;99.90;;;;;;4998523;28;20041;-96
2023/06/18 07:19:04;;;;;;;9.30;8.13;;;19.50;99.90;;;;;;5024150;28;20611;-96
2023/06/18 07:21:29;;;;;;;12.68;8.75;;;20.30;99.90;;;;;;4998598;28;20041;-90
2023/06/18 07:23:56;;;;;;;12.70;8.85;;;20.40;99.90;;;;;;5012456;28;20044;-89
2023/06/18 07:26:21;;;;;;;10.30;9.02;;;20.50;99.90;;;;;;4994125;28;20049;-87
2023/06/18 07:28:47;;;;;;;10.68;9.25;;;20.50;99.90;;;;;;5027537;28;20091;-87
2023/06/18 07:31:13;;;;;;;9.85;8.30;;;20.60;99.90;;;;;;5033119;28;20554;-88
2023/06/18 07:33:38;;;;;;;11.85;9.55;;;20.50;99.90;;;;;;5032229;28;20049;-89
2023/06/18 07:36:04;;;;;;;13.45;10.00;;;20.50;99.90;;;;;;5044167;28;20063;-92
2023/06/18 07:38:30;;;;;;;12.05;8.65;;;20.50;99.90;;;;;;5032238;28;20101;-91
2023/06/18 07:40:56;;;;;;;10.18;8.75;;;20.60;99.90;;;;;;5027201;28;20095;-92
2023/06/18 07:43:21;;;;;;;19.98;10.18;;;20.70;99.90;;;;;;4995583;28;20494;-89
2023/06/18 07:45:47;;;;;;;10.18;8.13;;;20.90;99.90;;;;;;5026904;28;20063;-89
2023/06/18 07:48:13;;;;;;;11.20;9.55;;;21.00;99.90;;;;;;5011075;28;20056;-91
2023/06/18 07:50:38;;;;;;;11.80;9.23;;;21.10;99.90;;;;;;5010666;28;20049;-90
2023/06/18 07:53:04;;;;;;;67.65;12.50;;;21.30;99.90;;;;;;5011574;28;20065;-90
2023/06/18 07:55:30;;;;;;;12.32;9.10;;;21.40;99.90;;;;;;4993680;28;20557;-89
2023/06/18 07:57:56;;;;;;;12.73;9.32;;;21.60;99.90;;;;;;5027852;28;20047;-84
2023/06/18 08:00:21;;;;;;;10.45;8.80;;;21.70;99.90;;;;;;5008911;28;20092;-86
2023/06/18 08:02:47;;;;;;;11.45;8.63;;;21.70;99.90;;;;;;5011427;28;20040;-86
2023/06/18 08:05:13;;;;;;;14.68;9.18;;;21.80;99.90;;;;;;5009945;28;20444;-89
2023/06/18 08:07:39;;;;;;;13.85;8.70;;;21.90;99.90;;;;;;5016412;28;20049;-94
2023/06/18 08:10:06;;;;;;;9.75;7.85;;;21.90;99.90;;;;;;5016879;28;20398;-95
2023/06/18 08:12:32;;;;;;;10.60;8.35;;;22.00;99.90;;;;;;5027930;28;20486;-94
2023/06/18 08:14:58;;;;;;;9.40;8.25;;;22.10;99.90;;;;;;5029459;28;20047;-95
2023/06/18 08:17:24;;;;;;;9.95;8.75;;;22.20;99.90;;;;;;4995038;28;20049;-95
2023/06/18 08:19:49;;;;;;;10.68;8.23;;;22.30;99.90;;;;;;5032465;28;20045;-94
2023/06/18 08:22:16;;;;;;;11.80;8.88;;;22.40;99.90;;;;;;4996837;28;20061;-92
2023/06/18 08:24:42;;;;;;;10.75;8.30;;;22.50;99.90;;;;;;5003039;28;20045;-94
2023/06/18 08:27:08;;;;;;;16.48;8.90;;;22.60;99.90;;;;;;5014485;28;20048;-95
2023/06/18 08:29:34;;;;;;;10.70;8.45;;;22.70;99.90;;;;;;5029263;28;20099;-94
2023/06/18 08:32:04;;;;;;;10.18;6.68;;;22.90;99.90;;;;;;5029187;28;20045;-94
2023/06/18 08:34:32;;;;;;;11.75;7.70;;;22.70;99.90;;;;;;5027984;28;20072;-95
2023/06/18 08:36:58;;;;;;;10.77;8.45;;;23.20;99.90;;;;;;5013346;28;20524;-94
2023/06/18 08:39:24;;;;;;;12.57;9.02;;;23.40;99.90;;;;;;4995581;28;20187;-94
2023/06/18 08:41:50;;;;;;;10.55;8.60;;;22.90;99.90;;;;;;5013416;28;20089;-95
2023/06/18 08:44:16;;;;;;;10.88;8.60;;;23.50;99.90;;;;;;4996299;28;20128;-94
2023/06/18 08:46:45;;;;;;;9.35;7.40;;;23.60;99.90;;;;;;4994937;28;20096;-95
2023/06/18 08:49:14;;;;;;;8.98;8.05;;;23.70;99.90;;;;;;5029199;28;20140;-95
2023/06/18 08:51:44;;;;;;;10.57;8.18;;;23.90;99.90;;;;;;5010558;28;20045;-93
2023/06/18 08:54:17;;;;;;;16.30;7.72;;;24.00;99.90;;;;;;5012415;28;20409;-91
2023/06/18 08:56:45;;;;;;;12.65;8.73;;;24.30;99.90;;;;;;5011854;28;20111;-94
2023/06/18 08:59:11;;;;;;;10.77;8.18;;;24.40;99.90;;;;;;5015145;28;20041;-93
2023/06/18 09:01:37;;;;;;;9.80;7.53;;;24.40;99.90;;;;;;4998765;28;20060;-93
2023/06/18 09:04:05;;;;;;;8.60;7.20;;;24.60;99.90;;;;;;5034447;28;20105;-93
2023/06/18 09:06:32;;;;;;;10.38;7.65;;;24.70;99.90;;;;;;5038006;28;20049;-92
2023/06/18 09:09:01;;;;;;;9.75;8.10;;;24.80;99.90;;;;;;5047582;28;20048;-93
2023/06/18 09:11:27;;;;;;;10.55;7.60;;;24.90;99.90;;;;;;5051837;28;20099;-91
2023/06/18 09:13:53;;;;;;;10.73;7.88;;;24.90;99.90;;;;;;5006151;28;20045;-93
2023/06/18 09:16:19;;;;;;;8.13;6.65;;;24.90;99.90;;;;;;5016385;28;20049;-93
2023/06/18 09:18:48;;;;;;;10.10;6.97;;;25.00;99.90;;;;;;5015648;28;20072;-94
2023/06/18 09:21:40;;;;;;;10.75;7.28;;;25.20;99.90;;;;;;5014914;28;20048;-94
2023/06/18 09:24:18;;;;;;;9.85;7.10;;;25.50;99.90;;;;;;5033297;28;20383;-94
2023/06/18 09:26:44;;;;;;;9.98;6.68;;;25.80;99.90;;;;;;5030240;28;20041;-95
2023/06/18 09:29:11;;;;;;;8.90;6.90;;;25.90;99.90;;;;;;5014914;28;20482;-93
2023/06/18 09:31:44;;;;;;;12.00;7.38;;;26.10;99.90;;;;;;4998875;28;20044;-94
2023/06/18 09:34:15;;;;;;;8.30;6.95;;;26.10;99.90;;;;;;5014288;28;20037;-94
2023/06/18 09:36:42;;;;;;;8.10;6.68;;;26.30;99.90;;;;;;5014921;28;20497;-95
2023/06/18 09:39:16;;;;;;;9.73;6.63;;;26.40;99.90;;;;;;4997222;28;20474;-95
2023/06/18 09:41:43;;;;;;;9.82;6.70;;;26.50;99.90;;;;;;5014670;28;20127;-94
2023/06/18 09:44:09;;;;;;;9.25;6.40;;;26.60;99.90;;;;;;5030610;28;20053;-95
2023/06/18 09:46:35;;;;;;;8.52;6.60;;;26.80;99.90;;;;;;5014195;28;20049;-94
2023/06/18 09:49:01;;;;;;;7.75;5.78;;;26.90;99.90;;;;;;5015136;28;20049;-94
2023/06/18 09:51:26;;;;;;;6.07;5.47;;;27.10;99.90;;;;;;5030404;28;20044;-93
2023/06/18 09:53:59;;;;;;;9.27;7.05;;;27.20;99.90;;;;;;5032089;28;20060;-92
2023/06/18 09:56:25;;;;;;;6.90;5.75;;;27.40;99.90;;;;;;5030486;28;20041;-94
2023/06/18 09:58:51;;;;;;;5.45;4.90;;;27.50;99.70;;;;;;4998228;28;20052;-95
2023/06/18 10:01:19;;;;;;;6.38;5.32;;;27.60;99.40;;;;;;4998320;28;20055;-96
2023/06/18 10:03:45;;;;;;;8.35;6.15;;;27.70;98.70;;;;;;5014338;28;20048;-95
2023/06/18 10:06:22;;;;;;;7.88;5.63;;;27.80;98.20;;;;;;5015984;28;20055;-95
2023/06/18 10:08:56;;;;;;;7.28;5.70;;;27.80;97.30;;;;;;5012967;28;20271;-94
2023/06/18 10:11:22;;;;;;;6.53;5.45;;;27.90;97.20;;;;;;4999404;28;20080;-93
2023/06/18 10:13:50;;;;;;;6.03;4.50;;;28.00;97.00;;;;;;5040084;28;20067;-95
2023/06/18 10:16:22;;;;;;;7.55;5.00;;;28.10;96.90;;;;;;5056325;28;20044;-96
2023/06/18 10:19:12;;;;;;;6.47;4.95;;;28.20;96.20;;;;;;5054354;28;20044;-96
2023/06/18 10:21:46;;;;;;;6.55;5.32;;;28.30;95.80;;;;;;5024568;28;20132;-94
2023/06/18 10:24:17;;;;;;;5.70;4.57;;;28.40;95.50;;;;;;5019148;28;20414;-94
2023/06/18 10:26:43;;;;;;;5.97;4.85;;;28.50;95.60;;;;;;5014341;28;20048;-95
2023/06/18 10:29:11;;;;;;;5.68;4.82;;;28.50;94.90;;;;;;5031868;28;20044;-94
2023/06/18 10:31:38;;;;;;;5.85;4.68;;;28.50;94.30;;;;;;5015777;28;20041;-94
2023/06/18 10:34:05;;;;;;;6.03;4.88;;;28.60;93.90;;;;;;5015289;28;20082;-92
2023/06/18 10:36:31;;;;;;;5.95;4.97;;;28.60;93.50;;;;;;5032683;28;20045;-96
2023/06/18 10:39:05;;;;;;;5.80;4.47;;;28.60;93.00;;;;;;5012790;28;20032;-94
2023/06/18 10:41:43;;;;;;;5.10;4.60;;;28.70;92.20;;;;;;5048383;28;20057;-96
2023/06/18 10:44:12;;;;;;;5.47;4.22;;;29.40;91.60;;;;;;5037961;28;20041;-95
2023/06/18 10:47:19;;;;;;;5.30;4.38;;;30.10;92.10;;;;;;5049972;28;20064;-96
2023/06/18 10:50:06;;;;;;;10.07;5.45;;;29.00;90.00;;;;;;5041078;28;20048;-95
2023/06/18 10:52:33;;;;;;;7.40;4.65;;;29.00;89.30;;;;;;5052471;28;20068;-94
2023/06/18 10:55:14;;;;;;;5.60;4.55;;;29.00;90.10;;;;;;5027281;28;20044;-96
2023/06/18 10:57:55;;;;;;;4.75;4.18;;;29.10;88.80;;;;;;5021754;28;20064;-93
2023/06/18 11:00:24;;;;;;;13.70;4.80;;;29.10;87.60;;;;;;5035978;28;20037;-96
2023/06/18 11:02:59;;;;;;;5.32;4.55;;;29.20;86.70;;;;;;5043995;28;20053;-94
2023/06/18 11:05:34;;;;;;;5.15;4.50;;;29.40;84.50;;;;;;5035635;28;20035;-95
2023/06/18 11:08:04;;;;;;;6.30;4.40;;;29.60;86.20;;;;;;5036651;28;20064;-96
2023/06/18 11:10:38;;;;;;;5.32;4.15;;;29.70;84.60;;;;;;5029040;28;20048;-96
2023/06/18 11:13:09;;;;;;;6.50;4.85;;;29.80;83.20;;;;;;5032261;28;20076;-96
2023/06/18 11:15:42;;;;;;;6.15;4.25;;;29.90;82.80;;;;;;5030197;28;20078;-96
2023/06/18 11:18:09;;;;;;;6.22;4.93;;;30.10;81.90;;;;;;5024073;28;20048;-93
2023/06/18 11:20:38;;;;;;;5.47;4.97;;;30.20;80.70;;;;;;5029025;28;20083;-96
2023/06/18 11:23:06;;;;;;;5.43;4.15;;;30.20;79.50;;;;;;5034409;28;20051;-96
2023/06/18 11:25:39;;;;;;;6.80;4.30;;;30.20;79.60;;;;;;5027061;28;20091;-96
2023/06/18 11:28:09;;;;;;;6.40;4.72;;;30.20;79.20;;;;;;5016565;28;20489;-92
2023/06/18 11:30:36;;;;;;;5.18;4.18;;;30.30;78.70;;;;;;5026442;28;20041;-89
2023/06/18 11:33:11;;;;;;;6.05;4.60;;;30.20;77.80;;;;;;5026044;28;20037;-91
2023/06/18 11:35:37;;;;;;;4.97;4.47;;;30.20;76.90;;;;;;4992514;28;20051;-89
2023/06/18 11:38:04;;;;;;;7.60;4.68;;;30.00;77.10;;;;;;4994776;28;20045;-89
2023/06/18 11:40:29;;;;;;;7.45;5.75;;;29.90;77.00;;;;;;4994172;28;20048;-88
2023/06/18 11:42:55;;;;;;;5.82;4.55;;;29.90;76.60;;;;;;5026209;28;20048;-93
2023/06/18 11:45:21;;;;;;;4.95;4.13;;;29.80;76.30;;;;;;4997046;28;20041;-95
2023/06/18 11:47:49;;;;;;;7.10;4.13;;;29.70;75.50;;;;;;5027271;28;20391;-95
2023/06/18 11:50:16;;;;;;;6.13;4.20;;;29.80;75.20;;;;;;5013525;28;20045;-95
2023/06/18 11:52:48;;;;;;;5.45;4.38;;;29.80;74.00;;;;;;5014996;28;20076;-92
2023/06/18 11:55:18;;;;;;;5.63;4.35;;;29.80;73.10;;;;;;5030692;28;20045;-93
2023/06/18 11:57:44;;;;;;;6.55;4.40;;;29.80;72.80;;;;;;4995610;28;20080;-93
2023/06/18 12:00:12;;;;;;;5.53;4.30;;;29.90;72.60;;;;;;5029183;28;20545;-91
2023/06/18 12:02:41;;;;;;;6.03;4.78;;;30.00;72.00;;;;;;5030205;28;20051;-93
2023/06/18 12:05:08;;;;;;;6.75;4.20;;;30.10;71.60;;;;;;5013323;28;20120;-93
2023/06/18 12:07:37;;;;;;;5.40;4.10;;;30.20;71.80;;;;;;5031545;28;20051;-93
2023/06/18 12:10:08;;;;;;;5.90;4.50;;;30.30;71.40;;;;;;5013259;28;20091;-93
2023/06/18 12:12:37;;;;;;;;;;;30.30;70.30;;;;;;5015521;28;20102;-94
2023/06/18 12:15:28;;;;;;;4.65;3.90;;;30.20;71.10;;;;;;5032126;28;19989;-92
2023/06/18 12:18:08;;;;;;;4.78;4.07;;;30.30;69.80;;;;;;5012507;28;20713;-90
2023/06/18 12:20:37;;;;;;;5.03;4.30;;;30.30;68.30;;;;;;5021348;28;20052;-94
2023/06/18 12:23:06;;;;;;;5.75;4.90;;;30.20;69.50;;;;;;5022376;28;20036;-91
2023/06/18 12:25:32;;;;;;;4.90;4.15;;;30.20;69.60;;;;;;5024891;28;20040;-91
2023/06/18 12:28:02;;;;;;;5.43;4.60;;;30.20;69.70;;;;;;5019789;28;20549;-91
2023/06/18 12:30:29;;;;;;;5.82;4.50;;;30.10;69.20;;;;;;5023152;28;20045;-95
2023/06/18 12:33:05;;;;;;;8.95;5.30;;;30.10;68.90;;;;;;5024685;28;20073;-88
2023/06/18 12:35:35;;;;;;;6.15;3.72;;;30.20;68.20;;;;;;5030530;28;20049;-89
2023/06/18 12:38:09;;;;;;;6.45;4.28;;;30.30;68.10;;;;;;5016421;28;20049;-91
2023/06/18 12:40:55;;;;;;;6.45;4.85;;;30.40;68.00;;;;;;5043915;28;20037;-96